createdAt,value
2023-03-10T00:03:33.418Z,1.30
2023-03-10T00:08:30.440Z,2.45
2023-03-10T00:13:28.038Z,1.20
2023-03-10T00:18:25.085Z,1.73
2023-03-10T00:23:22.930Z,2.15
2023-03-10T00:28:19.823Z,1.77
2023-03-10T00:33:17.692Z,1.40
2023-03-10T00:38:14.542Z,1.30
2023-03-10T00:43:12.678Z,1.65
2023-03-10T00:48:09.654Z,1.80
2023-03-10T00:53:07.723Z,1.42
2023-03-10T00:58:04.732Z,1.85
2023-03-10T01:03:05.318Z,1.45
2023-03-10T01:08:02.175Z,2.00
2023-03-10T01:12:59.863Z,1.38
2023-03-10T01:17:56.810Z,1.80
2023-03-10T01:22:53.819Z,1.52
2023-03-10T01:27:50.814Z,1.50
2023-03-10T01:32:48.608Z,1.90
2023-03-10T01:37:45.563Z,1.55
2023-03-10T01:42:42.978Z,2.25
2023-03-10T01:47:40.507Z,2.30
2023-03-10T01:52:38.522Z,2.38
2023-03-10T01:57:40.092Z,2.35
2023-03-10T02:02:41.951Z,2.03
2023-03-10T02:07:41.463Z,1.80
2023-03-10T02:12:38.432Z,2.00
2023-03-10T02:17:35.472Z,1.70
2023-03-10T02:22:33.149Z,1.63
2023-03-10T02:27:33.754Z,1.42
2023-03-10T02:32:34.498Z,1.55
2023-03-10T02:37:33.391Z,1.60
2023-03-10T02:42:35.258Z,1.98
2023-03-10T02:47:32.553Z,2.08
2023-03-10T02:52:34.610Z,1.60
2023-03-10T02:57:32.665Z,1.60
2023-03-10T03:02:32.290Z,1.55
2023-03-10T03:07:29.268Z,1.52
2023-03-10T03:12:26.369Z,1.80
2023-03-10T03:17:24.145Z,2.03
2023-03-10T03:22:21.319Z,1.80
2023-03-10T03:27:18.424Z,1.60
2023-03-10T03:32:15.646Z,1.88
2023-03-10T03:37:13.331Z,1.42
2023-03-10T03:42:11.083Z,1.98
2023-03-10T03:47:15.184Z,2.00
2023-03-10T03:52:12.970Z,2.45
2023-03-10T03:57:09.970Z,1.40
2023-03-10T04:02:07.375Z,1.60
2023-03-10T04:07:04.772Z,1.60
2023-03-10T04:12:02.422Z,1.63
2023-03-10T04:17:00.284Z,1.77
2023-03-10T04:21:57.668Z,1.83
2023-03-10T04:26:55.094Z,1.95
2023-03-10T04:32:04.785Z,2.20
2023-03-10T04:37:04.518Z,2.80
2023-03-10T04:42:02.182Z,2.28
2023-03-10T04:47:01.065Z,1.98
2023-03-10T04:51:58.020Z,2.40
2023-03-10T04:56:55.310Z,5.95
2023-03-10T05:01:53.141Z,2.47
2023-03-10T05:06:52.618Z,2.13
2023-03-10T05:11:56.978Z,2.90
2023-03-10T05:16:55.478Z,1.88
2023-03-10T05:22:00.312Z,2.05
2023-03-10T05:26:58.984Z,3.42
2023-03-10T05:31:59.311Z,2.42
2023-03-10T05:37:10.674Z,2.15
2023-03-10T05:42:08.965Z,2.00
2023-03-10T05:47:12.838Z,2.70
2023-03-10T05:52:28.461Z,2.33
2023-03-10T05:57:36.542Z,2.20
2023-03-10T06:07:34.007Z,2.40
2023-03-10T06:12:37.100Z,1.90
2023-03-10T06:17:41.817Z,2.22
2023-03-10T06:22:42.673Z,2.00
2023-03-10T06:27:39.809Z,1.98
2023-03-10T06:32:40.975Z,2.67
2023-03-10T06:37:39.387Z,4.00
2023-03-10T06:42:37.157Z,3.30
2023-03-10T06:47:34.404Z,3.40
2023-03-10T06:52:42.132Z,3.25
2023-03-10T06:57:40.753Z,3.00
2023-03-10T07:02:40.830Z,2.58
2023-03-10T07:07:38.023Z,2.72
2023-03-10T07:12:37.700Z,2.50
2023-03-10T07:17:38.498Z,1.90
2023-03-10T07:22:35.554Z,1.50
2023-03-10T07:27:32.693Z,2.55
2023-03-10T07:32:29.954Z,1.85
2023-03-10T07:37:31.474Z,1.50
2023-03-10T07:42:31.535Z,1.35
2023-03-10T07:47:29.296Z,1.58
2023-03-10T07:52:28.071Z,1.52
2023-03-10T07:57:26.078Z,1.33
2023-03-10T08:02:24.775Z,1.38
2023-03-10T08:07:22.037Z,1.80
2023-03-10T08:12:20.256Z,2.00
2023-03-10T08:17:19.177Z,1.52
2023-03-10T08:22:16.355Z,1.45
2023-03-10T08:27:13.383Z,1.67
2023-03-10T08:32:10.491Z,1.92
2023-03-10T08:37:08.056Z,2.15
2023-03-10T08:42:04.982Z,1.42
2023-03-10T08:47:02.012Z,1.75
2023-03-10T08:51:59.656Z,2.20
2023-03-10T08:56:59.572Z,2.45
2023-03-10T09:01:59.714Z,2.35
2023-03-10T09:06:56.559Z,2.22
2023-03-10T09:11:53.312Z,2.28
2023-03-10T09:16:51.011Z,2.10
2023-03-10T09:21:47.850Z,1.70
2023-03-10T09:26:45.083Z,1.52
2023-03-10T09:31:43.091Z,2.25
2023-03-10T09:36:41.420Z,1.80
2023-03-10T09:41:59.633Z,1.88
2023-03-10T09:47:20.143Z,1.60
2023-03-10T09:52:30.604Z,1.45
2023-03-10T09:57:30.990Z,1.85
2023-03-10T10:02:31.877Z,1.60
2023-03-10T10:07:42.510Z,1.65
2023-03-10T10:12:43.052Z,1.20
2023-03-10T10:18:02.677Z,1.38
2023-03-10T10:23:15.719Z,1.00
2023-03-10T10:28:20.075Z,1.60
2023-03-10T10:33:18.074Z,1.30
2023-03-10T10:38:26.912Z,1.35
2023-03-10T10:43:23.729Z,1.52
2023-03-10T10:48:45.847Z,3.05
2023-03-10T10:53:45.844Z,1.10
2023-03-10T10:58:43.947Z,1.33
2023-03-10T11:03:42.288Z,1.10
2023-03-10T11:08:44.422Z,1.13
2023-03-10T15:23:22.151Z,3.35
2023-03-10T15:28:18.981Z,2.58
2023-03-10T15:33:17.717Z,2.33
2023-03-10T15:38:15.030Z,2.50
2023-03-10T15:43:13.247Z,2.72
2023-03-10T15:48:10.818Z,3.22
2023-03-10T15:53:10.116Z,2.90
2023-03-10T15:58:07.586Z,3.35
2023-03-10T16:03:18.270Z,3.97
2023-03-10T16:08:16.304Z,3.35
2023-03-10T16:13:13.331Z,3.38
2023-03-10T16:18:10.799Z,3.60
2023-03-10T16:23:08.436Z,4.18
2023-03-10T16:28:05.485Z,3.58
2023-03-10T16:33:02.811Z,4.82
2023-03-10T16:38:01.332Z,4.75
2023-03-10T16:42:59.702Z,3.75
2023-03-10T16:47:56.671Z,4.72
2023-03-10T16:52:56.030Z,3.97
2023-03-10T16:57:52.936Z,3.90
2023-03-10T17:02:51.516Z,3.85
2023-03-10T17:07:55.647Z,4.05
2023-03-10T17:12:53.382Z,2.60
2023-03-10T17:17:53.178Z,2.67
2023-03-10T17:22:50.084Z,3.83
2023-03-10T17:27:47.719Z,4.05
2023-03-10T17:32:47.411Z,4.00
2023-03-10T17:37:45.926Z,4.35
2023-03-10T17:42:42.786Z,7.63
2023-03-10T17:47:40.673Z,5.07
2023-03-10T17:52:37.546Z,5.70
2023-03-10T17:57:35.202Z,5.55
2023-03-10T18:02:34.957Z,7.38
2023-03-10T18:07:31.847Z,6.70
2023-03-10T18:12:28.698Z,7.55
2023-03-10T18:17:28.188Z,8.10
2023-03-10T18:22:25.039Z,6.47
2023-03-10T18:27:22.430Z,8.70
2023-03-10T18:32:19.714Z,7.82
2023-03-10T18:37:17.410Z,4.97
2023-03-10T18:42:14.452Z,6.43
2023-03-10T18:47:11.424Z,7.20
2023-03-10T18:52:08.693Z,6.43
2023-03-10T18:57:11.963Z,5.28
2023-03-10T19:02:13.512Z,6.00
2023-03-10T19:07:11.060Z,5.43
2023-03-10T19:12:09.249Z,7.88
2023-03-10T19:17:06.214Z,8.85
2023-03-10T19:22:03.090Z,9.70
2023-03-10T19:27:03.489Z,6.50
2023-03-10T19:32:03.321Z,7.63
2023-03-10T19:37:00.941Z,8.02
2023-03-10T19:41:57.870Z,7.90
2023-03-10T19:46:56.314Z,8.52
2023-03-10T19:51:59.864Z,7.80
2023-03-10T19:56:59.649Z,8.60
2023-03-10T20:02:01.019Z,6.95
2023-03-10T20:06:59.101Z,7.28
2023-03-10T20:11:56.592Z,7.30
2023-03-10T20:16:55.896Z,7.60
2023-03-10T20:21:53.572Z,8.05
2023-03-10T20:26:51.217Z,7.30
2023-03-10T20:31:48.099Z,8.25
2023-03-10T20:36:45.126Z,6.95
2023-03-10T20:41:45.046Z,7.22
2023-03-10T20:46:43.496Z,8.52
2023-03-10T20:51:40.717Z,7.78
2023-03-10T20:56:37.527Z,7.72
2023-03-10T21:01:38.996Z,7.28
2023-03-10T21:06:36.868Z,8.43
2023-03-10T21:11:34.689Z,8.15
2023-03-10T21:16:31.607Z,8.45
2023-03-10T21:21:30.926Z,7.85
2023-03-10T21:26:28.718Z,7.47
2023-03-10T21:31:25.692Z,7.55
2023-03-10T21:36:24.131Z,7.13
2023-03-10T21:41:23.331Z,7.10
2023-03-10T21:46:21.232Z,5.95
2023-03-10T21:51:20.865Z,6.32
2023-03-10T21:56:19.233Z,5.82
2023-03-10T22:01:17.754Z,7.15
2023-03-10T22:06:15.771Z,6.53
2023-03-10T22:11:13.723Z,5.93
2023-03-10T22:16:15.590Z,5.72
2023-03-10T22:21:12.871Z,6.32
2023-03-10T22:26:10.789Z,6.57
2023-03-10T22:31:08.407Z,7.00
2023-03-10T22:36:07.701Z,8.07
2023-03-10T22:41:09.425Z,7.43
2023-03-10T22:46:15.450Z,6.63
2023-03-10T22:51:16.309Z,6.57
2023-03-10T22:56:13.368Z,8.30
2023-03-10T23:01:10.182Z,6.97
2023-03-10T23:06:08.234Z,7.18
2023-03-10T23:11:09.274Z,6.97
2023-03-10T23:16:09.360Z,6.88
2023-03-10T23:21:07.486Z,6.60
2023-03-10T23:26:04.694Z,6.80
2023-03-10T23:31:01.560Z,7.03
2023-03-10T23:35:58.754Z,5.88
2023-03-10T23:40:56.298Z,6.03
2023-03-10T23:45:53.533Z,5.40
2023-03-10T23:50:50.879Z,5.75
2023-03-10T23:55:48.065Z,5.40
